Knottingley, United Kingdom
Current Conditions -  °F | °C
As of 4:20 PM on Monday 26 Jan 2015 (Local Time) from EGNM Reporting Station
Few Clouds Few Clouds  
Wind Chill: 31°   Ceiling: Unl
Heat Index: 39°   Visibility: 6mi
Dew Point: 36°   Wind: 14mph
Humidity: 87%   Direction: 290°WNW
Pressure: 30.18"   Gusts: NA
Location:  53.71°N, 1.26°W
Report Text: EGNM 261620Z 29012KT 9999 FEW013 04/02 Q1022
Loading
Personal Weather Stations






























Interactive Weather Map New forecast layout! Learn more

10-Day Weather Forecast

Advertisements
Track Severe Weather on mobile